sensor_id;sensor_type;location;lat;lon;timestamp;pressure;altitude;pressure_sealevel;temperature;humidity
29879;BME280;16752;53.364;-1.488;2023-05-20T00:00:28;101662.91;;;19.70;39.46
29879;BME280;16752;53.364;-1.488;2023-05-20T00:03:12;101710.09;;;20.09;39.47
29879;BME280;16752;53.364;-1.488;2023-05-20T00:05:57;101745.63;;;20.20;39.55
29879;BME280;16752;53.364;-1.488;2023-05-20T00:08:44;101656.88;;;19.68;39.64
29879;BME280;16752;53.364;-1.488;2023-05-20T00:11:41;101719.59;;;20.02;39.58
29879;BME280;16752;53.364;-1.488;2023-05-20T00:14:29;101767.34;;;20.25;39.76
29879;BME280;16752;53.364;-1.488;2023-05-20T00:17:16;101754.69;;;20.17;39.59
29879;BME280;16752;53.364;-1.488;2023-05-20T00:20:00;101718.66;;;19.92;39.86
29879;BME280;16752;53.364;-1.488;2023-05-20T00:22:44;101666.09;;;19.64;39.48
29879;BME280;16752;53.364;-1.488;2023-05-20T00:25:29;101746.25;;;20.12;39.51
29879;BME280;16752;53.364;-1.488;2023-05-20T00:28:15;101729.28;;;19.92;40.04
29879;BME280;16752;53.364;-1.488;2023-05-20T00:30:59;101761.81;;;20.17;39.70
29879;BME280;16752;53.364;-1.488;2023-05-20T00:33:43;101764.88;;;20.12;39.40
29879;BME280;16752;53.364;-1.488;2023-05-20T00:36:27;101769.03;;;20.05;39.93
29879;BME280;16752;53.364;-1.488;2023-05-20T00:39:11;101813.75;;;20.32;39.75
29879;BME280;16752;53.364;-1.488;2023-05-20T00:41:56;101694.75;;;19.49;39.45
29879;BME280;16752;53.364;-1.488;2023-05-20T00:44:43;101665.25;;;19.20;39.55
29879;BME280;16752;53.364;-1.488;2023-05-20T00:47:30;101778.78;;;19.83;39.62
29879;BME280;16752;53.364;-1.488;2023-05-20T00:50:18;101829.09;;;20.07;40.04
29879;BME280;16752;53.364;-1.488;2023-05-20T00:53:15;101831.31;;;20.02;40.03
29879;BME280;16752;53.364;-1.488;2023-05-20T00:56:00;101690.84;;;19.21;39.97
29879;BME280;16752;53.364;-1.488;2023-05-20T00:58:44;101740.56;;;19.41;39.94
29879;BME280;16752;53.364;-1.488;2023-05-20T01:01:29;101772.53;;;19.51;40.51
29879;BME280;16752;53.364;-1.488;2023-05-20T01:04:13;101776.06;;;19.40;40.14
29879;BME280;16752;53.364;-1.488;2023-05-20T01:07:00;101840.06;;;19.82;40.27
29879;BME280;16752;53.364;-1.488;2023-05-20T01:09:45;101722.75;;;19.10;40.39
29879;BME280;16752;53.364;-1.488;2023-05-20T01:12:49;101638.50;;;18.56;40.89
29879;BME280;16752;53.364;-1.488;2023-05-20T01:15:36;101735.78;;;19.13;40.64
29879;BME280;16752;53.364;-1.488;2023-05-20T01:18:25;101747.34;;;19.23;40.74
29879;BME280;16752;53.364;-1.488;2023-05-20T01:21:14;101672.81;;;18.70;41.15
29879;BME280;16752;53.364;-1.488;2023-05-20T01:23:58;101726.97;;;19.01;40.67
29879;BME280;16752;53.364;-1.488;2023-05-20T01:26:45;101664.94;;;18.57;40.79
29879;BME280;16752;53.364;-1.488;2023-05-20T01:29:31;101646.69;;;18.42;40.85
29879;BME280;16752;53.364;-1.488;2023-05-20T01:32:22;101766.22;;;19.09;40.91
29879;BME280;16752;53.364;-1.488;2023-05-20T01:35:17;101826.81;;;19.37;40.85
29879;BME280;16752;53.364;-1.488;2023-05-20T01:38:04;101824.66;;;19.31;40.88
29879;BME280;16752;53.364;-1.488;2023-05-20T01:40:50;101735.56;;;18.71;41.15
29879;BME280;16752;53.364;-1.488;2023-05-20T01:43:38;101676.00;;;18.29;40.91
29879;BME280;16752;53.364;-1.488;2023-05-20T01:46:22;101731.28;;;18.57;41.04
29879;BME280;16752;53.364;-1.488;2023-05-20T01:49:10;101828.88;;;19.11;41.29
29879;BME280;16752;53.364;-1.488;2023-05-20T01:51:55;101783.09;;;18.74;41.36
29879;BME280;16752;53.364;-1.488;2023-05-20T01:54:42;101667.06;;;18.08;41.20
29879;BME280;16752;53.364;-1.488;2023-05-20T01:57:28;101670.44;;;18.10;41.15
29879;BME280;16752;53.364;-1.488;2023-05-20T02:00:13;101712.06;;;18.31;41.23
29879;BME280;16752;53.364;-1.488;2023-05-20T02:02:58;101727.63;;;18.36;41.41
29879;BME280;16752;53.364;-1.488;2023-05-20T02:05:43;101827.06;;;18.89;41.35
29879;BME280;16752;53.364;-1.488;2023-05-20T02:08:30;101637.19;;;17.70;41.67
29879;BME280;16752;53.364;-1.488;2023-05-20T02:11:17;101831.25;;;18.81;41.88
29879;BME280;16752;53.364;-1.488;2023-05-20T02:14:05;101696.78;;;18.00;41.72
29879;BME280;16752;53.364;-1.488;2023-05-20T02:16:49;101730.59;;;18.20;41.80
29879;BME280;16752;53.364;-1.488;2023-05-20T02:19:39;101831.72;;;18.75;41.62
29879;BME280;16752;53.364;-1.488;2023-05-20T02:25:36;101728.66;;;18.11;41.93
29879;BME280;16752;53.364;-1.488;2023-05-20T02:28:31;101753.31;;;18.24;41.75
29879;BME280;16752;53.364;-1.488;2023-05-20T02:31:33;101822.66;;;18.66;41.91
29879;BME280;16752;53.364;-1.488;2023-05-20T02:34:23;101814.16;;;18.61;42.06
29879;BME280;16752;53.364;-1.488;2023-05-20T02:37:19;101810.16;;;18.55;42.21
29879;BME280;16752;53.364;-1.488;2023-05-20T02:40:17;101809.69;;;18.50;42.15
29879;BME280;16752;53.364;-1.488;2023-05-20T02:43:07;101760.13;;;18.16;42.10
29879;BME280;16752;53.364;-1.488;2023-05-20T02:45:57;101633.97;;;17.30;42.28
29879;BME280;16752;53.364;-1.488;2023-05-20T02:48:49;101754.06;;;18.02;42.40
29879;BME280;16752;53.364;-1.488;2023-05-20T02:51:36;101672.69;;;17.44;42.18
29879;BME280;16752;53.364;-1.488;2023-05-20T02:54:38;101719.41;;;17.82;42.30
29879;BME280;16752;53.364;-1.488;2023-05-20T02:57:49;101727.13;;;17.85;42.52
29879;BME280;16752;53.364;-1.488;2023-05-20T03:00:39;101757.56;;;18.03;42.26
29879;BME280;16752;53.364;-1.488;2023-05-20T03:03:44;101741.59;;;17.92;42.24
29879;BME280;16752;53.364;-1.488;2023-05-20T03:06:51;101774.22;;;18.05;42.23
29879;BME280;16752;53.364;-1.488;2023-05-20T03:09:46;101708.31;;;17.64;42.44
29879;BME280;16752;53.364;-1.488;2023-05-20T03:12:39;101811.66;;;18.24;42.35
29879;BME280;16752;53.364;-1.488;2023-05-20T03:15:33;101656.72;;;17.33;42.21
29879;BME280;16752;53.364;-1.488;2023-05-20T03:18:30;101702.41;;;17.60;42.21
29879;BME280;16752;53.364;-1.488;2023-05-20T03:21:26;101637.94;;;17.25;42.46
29879;BME280;16752;53.364;-1.488;2023-05-20T03:24:33;101807.88;;;18.16;42.31
29879;BME280;16752;53.364;-1.488;2023-05-20T03:27:33;101617.81;;;16.98;42.39
29879;BME280;16752;53.364;-1.488;2023-05-20T03:30:51;101697.97;;;17.37;42.38
29879;BME280;16752;53.364;-1.488;2023-05-20T03:33:59;101637.34;;;17.08;42.51
29879;BME280;16752;53.364;-1.488;2023-05-20T03:36:54;101634.69;;;17.08;42.37
29879;BME280;16752;53.364;-1.488;2023-05-20T03:39:46;101752.44;;;17.89;42.41
29879;BME280;16752;53.364;-1.488;2023-05-20T03:42:32;101743.28;;;17.93;42.49
29879;BME280;16752;53.364;-1.488;2023-05-20T03:45:42;101676.88;;;17.59;42.72
29879;BME280;16752;53.364;-1.488;2023-05-20T03:48:34;101638.03;;;17.47;43.47
29879;BME280;16752;53.364;-1.488;2023-05-20T03:54:35;101640.59;;;17.84;42.43
29879;BME280;16752;53.364;-1.488;2023-05-20T03:57:37;101668.22;;;17.92;42.73
29879;BME280;16752;53.364;-1.488;2023-05-20T04:00:24;101735.50;;;18.49;42.32
29879;BME280;16752;53.364;-1.488;2023-05-20T04:14:13;101660.34;;;18.26;42.16
29879;BME280;16752;53.364;-1.488;2023-05-20T04:21:03;101801.47;;;19.11;42.87
29879;BME280;16752;53.364;-1.488;2023-05-20T05:00:29;101681.81;;;18.56;41.97
29879;BME280;16752;53.364;-1.488;2023-05-20T05:03:31;101804.09;;;19.44;41.58
29879;BME280;16752;53.364;-1.488;2023-05-20T05:06:50;101702.25;;;18.67;42.11
29879;BME280;16752;53.364;-1.488;2023-05-20T05:09:48;101788.91;;;19.35;41.33
29879;BME280;16752;53.364;-1.488;2023-05-20T05:12:34;101717.94;;;18.92;41.20
29879;BME280;16752;53.364;-1.488;2023-05-20T05:15:26;101640.91;;;18.37;41.53
29879;BME280;16752;53.364;-1.488;2023-05-20T05:22:28;101719.16;;;18.88;41.03
29879;BME280;16752;53.364;-1.488;2023-05-20T05:25:35;101635.84;;;18.22;41.39
29879;BME280;16752;53.364;-1.488;2023-05-20T05:28:57;101653.47;;;18.35;40.89
29879;BME280;16752;53.364;-1.488;2023-05-20T05:31:44;101805.09;;;19.32;41.19
29879;BME280;16752;53.364;-1.488;2023-05-20T05:34:51;101791.78;;;19.21;41.30
29879;BME280;16752;53.364;-1.488;2023-05-20T05:38:04;101799.28;;;19.27;41.14
29879;BME280;16752;53.364;-1.488;2023-05-20T05:40:51;101798.31;;;19.28;40.92
29879;BME280;16752;53.364;-1.488;2023-05-20T05:43:35;101745.59;;;18.90;41.47
29879;BME280;16752;53.364;-1.488;2023-05-20T05:46:34;101749.06;;;19.02;40.90
29879;BME280;16752;53.364;-1.488;2023-05-20T05:49:40;101627.41;;;18.28;41.00
29879;BME280;16752;53.364;-1.488;2023-05-20T05:52:38;101670.41;;;18.67;40.69
29879;BME280;16752;53.364;-1.488;2023-05-20T05:55:47;101800.25;;;19.26;40.95
29879;BME280;16752;53.364;-1.488;2023-05-20T05:58:51;101726.38;;;18.86;40.50
29879;BME280;16752;53.364;-1.488;2023-05-20T06:12:51;101809.66;;;19.41;40.81
29879;BME280;16752;53.364;-1.488;2023-05-20T06:15:42;101659.50;;;18.25;41.32
29879;BME280;16752;53.364;-1.488;2023-05-20T06:18:34;101808.22;;;19.26;41.43
29879;BME280;16752;53.364;-1.488;2023-05-20T06:21:25;101813.78;;;19.34;41.13
29879;BME280;16752;53.364;-1.488;2023-05-20T06:37:06;101807.72;;;20.41;38.95
29879;BME280;16752;53.364;-1.488;2023-05-20T06:39:51;101736.44;;;20.12;38.71
29879;BME280;16752;53.364;-1.488;2023-05-20T06:42:36;101689.94;;;18.66;40.48
29879;BME280;16752;53.364;-1.488;2023-05-20T06:45:30;101659.00;;;19.53;38.99
29879;BME280;16752;53.364;-1.488;2023-05-20T06:48:14;101635.75;;;18.91;39.21
29879;BME280;16752;53.364;-1.488;2023-05-20T06:54:45;101650.94;;;18.89;40.04
29879;BME280;16752;53.364;-1.488;2023-05-20T06:57:58;101669.41;;;19.77;38.80
29879;BME280;16752;53.364;-1.488;2023-05-20T07:01:05;101617.69;;;19.17;39.16
29879;BME280;16752;53.364;-1.488;2023-05-20T07:04:02;101701.28;;;19.56;39.59
29879;BME280;16752;53.364;-1.488;2023-05-20T07:06:49;101686.03;;;19.90;38.22
29879;BME280;16752;53.364;-1.488;2023-05-20T07:10:34;101654.66;;;19.73;38.80
29879;BME280;16752;53.364;-1.488;2023-05-20T07:25:09;101784.63;;;21.02;37.74
29879;BME280;16752;53.364;-1.488;2023-05-20T07:28:04;101626.16;;;19.75;38.42
29879;BME280;16752;53.364;-1.488;2023-05-20T07:30:59;101655.03;;;19.79;38.65
29879;BME280;16752;53.364;-1.488;2023-05-20T07:33:49;101648.94;;;20.40;37.44
29879;BME280;16752;53.364;-1.488;2023-05-20T07:36:33;101705.94;;;20.98;36.86
29879;BME280;16752;53.364;-1.488;2023-05-20T07:42:51;101730.66;;;21.50;36.94
29879;BME280;16752;53.364;-1.488;2023-05-20T07:45:41;101634.56;;;20.83;36.85
29879;BME280;16752;53.364;-1.488;2023-05-20T07:48:55;101701.34;;;21.79;35.32
29879;BME280;16752;53.364;-1.488;2023-05-20T07:51:47;101784.88;;;22.47;36.08
29879;BME280;16752;53.364;-1.488;2023-05-20T07:58:59;101604.91;;;21.74;35.25
29879;BME280;16752;53.364;-1.488;2023-05-20T08:02:39;101781.84;;;22.89;34.75
29879;BME280;16752;53.364;-1.488;2023-05-20T08:05:30;101715.88;;;22.90;33.89
29879;BME280;16752;53.364;-1.488;2023-05-20T08:08:21;101661.16;;;22.56;33.37
29879;BME280;16752;53.364;-1.488;2023-05-20T08:11:06;101720.59;;;22.96;33.58
29879;BME280;16752;53.364;-1.488;2023-05-20T08:13:50;101652.41;;;22.92;33.12
29879;BME280;16752;53.364;-1.488;2023-05-20T08:16:46;101684.03;;;23.24;32.29
29879;BME280;16752;53.364;-1.488;2023-05-20T08:19:55;101632.06;;;22.16;34.89
29879;BME280;16752;53.364;-1.488;2023-05-20T08:29:26;101634.28;;;23.31;31.03
29879;BME280;16752;53.364;-1.488;2023-05-20T08:32:22;101683.22;;;23.59;31.79
29879;BME280;16752;53.364;-1.488;2023-05-20T08:35:45;101635.81;;;23.15;31.81
29879;BME280;16752;53.364;-1.488;2023-05-20T08:41:48;101645.75;;;23.41;31.74
29879;BME280;16752;53.364;-1.488;2023-05-20T08:48:18;101644.53;;;23.89;30.53
29879;BME280;16752;53.364;-1.488;2023-05-20T08:58:51;101768.00;;;25.15;29.81
29879;BME280;16752;53.364;-1.488;2023-05-20T09:23:13;101628.94;;;24.78;29.83
29879;BME280;16752;53.364;-1.488;2023-05-20T09:26:27;101678.72;;;24.03;28.50
29879;BME280;16752;53.364;-1.488;2023-05-20T09:46:08;101649.88;;;25.57;29.56
29879;BME280;16752;53.364;-1.488;2023-05-20T09:48:58;101648.81;;;26.32;25.77
29879;BME280;16752;53.364;-1.488;2023-05-20T09:51:43;101726.47;;;26.82;25.94
29879;BME280;16752;53.364;-1.488;2023-05-20T09:54:31;101734.03;;;26.78;25.74
29879;BME280;16752;53.364;-1.488;2023-05-20T09:57:16;101655.22;;;26.31;26.14
29879;BME280;16752;53.364;-1.488;2023-05-20T10:00:05;101658.31;;;25.87;26.70
29879;BME280;16752;53.364;-1.488;2023-05-20T10:03:11;101607.31;;;25.38;27.10
29879;BME280;16752;53.364;-1.488;2023-05-20T10:09:04;101726.44;;;25.86;27.59
29879;BME280;16752;53.364;-1.488;2023-05-20T10:21:21;101641.16;;;24.73;28.15
29879;BME280;16752;53.364;-1.488;2023-05-20T10:24:38;101647.69;;;26.02;27.46
29879;BME280;16752;53.364;-1.488;2023-05-20T10:27:29;101636.94;;;26.73;26.10
29879;BME280;16752;53.364;-1.488;2023-05-20T10:30:26;101644.63;;;26.21;26.78
29879;BME280;16752;53.364;-1.488;2023-05-20T10:33:16;101643.84;;;26.12;25.98
29879;BME280;16752;53.364;-1.488;2023-05-20T10:39:01;101696.59;;;27.39;25.75
29879;BME280;16752;53.364;-1.488;2023-05-20T10:49:31;101533.59;;;26.06;26.82
29879;BME280;16752;53.364;-1.488;2023-05-20T10:55:58;101538.56;;;27.10;24.80
29879;BME280;16752;53.364;-1.488;2023-05-20T11:17:18;101521.88;;;26.92;26.64
29879;BME280;16752;53.364;-1.488;2023-05-20T11:20:23;101524.38;;;24.70;28.09
29879;BME280;16752;53.364;-1.488;2023-05-20T11:23:17;101656.00;;;27.72;26.11
29879;BME280;16752;53.364;-1.488;2023-05-20T11:29:20;101643.06;;;28.05;24.29
29879;BME280;16752;53.364;-1.488;2023-05-20T11:32:22;101574.41;;;27.48;24.92
29879;BME280;16752;53.364;-1.488;2023-05-20T11:38:00;101617.13;;;27.28;26.28
29879;BME280;16752;53.364;-1.488;2023-05-20T11:40:48;101633.38;;;27.58;26.96
29879;BME280;16752;53.364;-1.488;2023-05-20T11:43:35;101612.88;;;28.09;25.16
29879;BME280;16752;53.364;-1.488;2023-05-20T11:46:20;101509.16;;;27.46;25.57
29879;BME280;16752;53.364;-1.488;2023-05-20T11:49:06;101584.25;;;27.79;24.97
29879;BME280;16752;53.364;-1.488;2023-05-20T11:58:30;101620.78;;;29.27;23.93
29879;BME280;16752;53.364;-1.488;2023-05-20T12:01:14;101536.59;;;28.74;24.21
29879;BME280;16752;53.364;-1.488;2023-05-20T12:03:58;101615.22;;;29.29;24.15
29879;BME280;16752;53.364;-1.488;2023-05-20T12:06:42;101546.84;;;29.00;24.25
29879;BME280;16752;53.364;-1.488;2023-05-20T12:09:26;101484.22;;;28.26;24.45
29879;BME280;16752;53.364;-1.488;2023-05-20T12:12:10;101542.91;;;29.24;24.39
29879;BME280;16752;53.364;-1.488;2023-05-20T12:14:57;101517.34;;;28.99;23.45
29879;BME280;16752;53.364;-1.488;2023-05-20T12:21:57;101532.25;;;28.95;24.92
29879;BME280;16752;53.364;-1.488;2023-05-20T12:24:41;101520.06;;;29.48;24.09
29879;BME280;16752;53.364;-1.488;2023-05-20T12:27:25;101512.41;;;29.86;24.03
29879;BME280;16752;53.364;-1.488;2023-05-20T12:33:17;101575.63;;;29.14;24.31
29879;BME280;16752;53.364;-1.488;2023-05-20T12:36:04;101553.50;;;29.47;24.39
29879;BME280;16752;53.364;-1.488;2023-05-20T12:38:49;101480.97;;;28.01;24.34
29879;BME280;16752;53.364;-1.488;2023-05-20T12:42:03;101458.03;;;28.63;23.94
29879;BME280;16752;53.364;-1.488;2023-05-20T12:44:57;101501.19;;;29.27;23.70
29879;BME280;16752;53.364;-1.488;2023-05-20T12:47:56;101582.81;;;30.54;21.73
29879;BME280;16752;53.364;-1.488;2023-05-20T12:54:16;101454.81;;;30.20;22.60
29879;BME280;16752;53.364;-1.488;2023-05-20T12:57:04;101564.50;;;31.17;21.61
29879;BME280;16752;53.364;-1.488;2023-05-20T12:59:54;101491.06;;;30.52;20.99
29879;BME280;16752;53.364;-1.488;2023-05-20T13:02:41;101568.50;;;30.60;21.49
29879;BME280;16752;53.364;-1.488;2023-05-20T13:05:26;101487.88;;;30.22;22.98
29879;BME280;16752;53.364;-1.488;2023-05-20T13:08:10;101553.69;;;30.56;21.02
29879;BME280;16752;53.364;-1.488;2023-05-20T13:10:55;101562.25;;;30.11;22.07
29879;BME280;16752;53.364;-1.488;2023-05-20T13:13:48;101553.03;;;29.43;23.38
29879;BME280;16752;53.364;-1.488;2023-05-20T13:16:32;101511.84;;;30.38;21.53
29879;BME280;16752;53.364;-1.488;2023-05-20T13:19:41;101553.47;;;30.51;22.22
29879;BME280;16752;53.364;-1.488;2023-05-20T13:22:50;101406.28;;;29.99;22.57
29879;BME280;16752;53.364;-1.488;2023-05-20T13:25:44;101492.59;;;30.61;21.33
29879;BME280;16752;53.364;-1.488;2023-05-20T13:33:04;101410.00;;;29.22;22.12
29879;BME280;16752;53.364;-1.488;2023-05-20T13:43:22;101421.72;;;29.36;20.54
29879;BME280;16752;53.364;-1.488;2023-05-20T13:46:09;101514.13;;;29.94;21.49
29879;BME280;16752;53.364;-1.488;2023-05-20T13:48:54;101380.34;;;29.57;21.67
29879;BME280;16752;53.364;-1.488;2023-05-20T13:51:38;101430.28;;;30.35;20.25
29879;BME280;16752;53.364;-1.488;2023-05-20T13:54:22;101522.63;;;31.06;19.05
29879;BME280;16752;53.364;-1.488;2023-05-20T13:57:06;101388.00;;;29.25;21.64
29879;BME280;16752;53.364;-1.488;2023-05-20T13:59:53;101449.53;;;30.80;21.00
29879;BME280;16752;53.364;-1.488;2023-05-20T14:02:52;101472.81;;;31.53;19.00
29879;BME280;16752;53.364;-1.488;2023-05-20T14:05:45;101370.63;;;31.09;19.31
29879;BME280;16752;53.364;-1.488;2023-05-20T14:08:37;101414.22;;;31.66;18.85
29879;BME280;16752;53.364;-1.488;2023-05-20T14:11:24;101482.63;;;31.15;19.41
29879;BME280;16752;53.364;-1.488;2023-05-20T14:14:09;101506.88;;;30.42;20.20
29879;BME280;16752;53.364;-1.488;2023-05-20T14:16:59;101499.28;;;30.98;20.21
29879;BME280;16752;53.364;-1.488;2023-05-20T14:19:55;101418.09;;;30.72;20.44
29879;BME280;16752;53.364;-1.488;2023-05-20T14:22:39;101492.69;;;32.05;19.54
29879;BME280;16752;53.364;-1.488;2023-05-20T14:25:24;101482.00;;;31.39;19.52
29879;BME280;16752;53.364;-1.488;2023-05-20T14:30:49;101398.47;;;30.17;19.62
29879;BME280;16752;53.364;-1.488;2023-05-20T14:33:37;101358.97;;;30.16;20.57
29879;BME280;16752;53.364;-1.488;2023-05-20T14:36:21;101449.72;;;31.38;18.92
29879;BME280;16752;53.364;-1.488;2023-05-20T14:39:05;101437.03;;;30.72;19.92
29879;BME280;16752;53.364;-1.488;2023-05-20T14:41:52;101421.63;;;31.19;19.34
29879;BME280;16752;53.364;-1.488;2023-05-20T14:44:36;101400.59;;;30.48;20.70
29879;BME280;16752;53.364;-1.488;2023-05-20T14:47:29;101473.47;;;30.63;19.26
29879;BME280;16752;53.364;-1.488;2023-05-20T14:53:29;101370.94;;;29.94;18.43
29879;BME280;16752;53.364;-1.488;2023-05-20T14:56:41;101338.19;;;30.89;19.76
29879;BME280;16752;53.364;-1.488;2023-05-20T14:59:28;101471.09;;;32.37;17.79
29879;BME280;16752;53.364;-1.488;2023-05-20T15:02:12;101375.78;;;32.33;17.96
29879;BME280;16752;53.364;-1.488;2023-05-20T15:04:56;101326.28;;;32.38;17.76
29879;BME280;16752;53.364;-1.488;2023-05-20T15:07:40;101454.00;;;33.97;16.06
29879;BME280;16752;53.364;-1.488;2023-05-20T15:10:25;101452.47;;;34.50;15.80
29879;BME280;16752;53.364;-1.488;2023-05-20T15:13:09;101446.19;;;34.01;14.65
29879;BME280;16752;53.364;-1.488;2023-05-20T15:15:53;101442.84;;;35.12;13.88
29879;BME280;16752;53.364;-1.488;2023-05-20T15:18:37;101372.03;;;36.50;13.60
29879;BME280;16752;53.364;-1.488;2023-05-20T15:21:22;101450.13;;;38.00;12.84
29879;BME280;16752;53.364;-1.488;2023-05-20T15:24:06;101349.34;;;35.87;12.47
29879;BME280;16752;53.364;-1.488;2023-05-20T15:26:53;101442.41;;;39.10;11.81
29879;BME280;16752;53.364;-1.488;2023-05-20T15:29:37;101441.03;;;38.43;12.04
29879;BME280;16752;53.364;-1.488;2023-05-20T15:32:21;101396.66;;;38.73;11.66
29879;BME280;16752;53.364;-1.488;2023-05-20T15:35:06;101345.22;;;38.86;11.34
29879;BME280;16752;53.364;-1.488;2023-05-20T15:37:50;101386.91;;;38.93;11.44
29879;BME280;16752;53.364;-1.488;2023-05-20T15:40:34;101437.94;;;40.34;10.99
29879;BME280;16752;53.364;-1.488;2023-05-20T15:43:23;101361.28;;;41.04;9.45
29879;BME280;16752;53.364;-1.488;2023-05-20T15:46:07;101390.16;;;40.76;10.25
29879;BME280;16752;53.364;-1.488;2023-05-20T15:48:57;101416.88;;;41.70;9.18
29879;BME280;16752;53.364;-1.488;2023-05-20T15:51:41;101329.44;;;41.52;9.44
29879;BME280;16752;53.364;-1.488;2023-05-20T15:54:34;101424.19;;;40.09;10.09
29879;BME280;16752;53.364;-1.488;2023-05-20T15:57:19;101364.28;;;39.90;10.59
29879;BME280;16752;53.364;-1.488;2023-05-20T16:00:03;101370.94;;;41.66;9.58
29879;BME280;16752;53.364;-1.488;2023-05-20T16:02:53;101376.94;;;41.73;8.91
29879;BME280;16752;53.364;-1.488;2023-05-20T16:05:38;101425.88;;;42.25;8.94
29879;BME280;16752;53.364;-1.488;2023-05-20T16:08:21;101342.06;;;41.58;9.10
29879;BME280;16752;53.364;-1.488;2023-05-20T16:11:06;101346.13;;;39.54;10.27
29879;BME280;16752;53.364;-1.488;2023-05-20T16:13:51;101364.16;;;39.45;10.85
29879;BME280;16752;53.364;-1.488;2023-05-20T16:16:43;101349.22;;;40.74;10.07
29879;BME280;16752;53.364;-1.488;2023-05-20T16:19:27;101373.25;;;39.50;11.23
29879;BME280;16752;53.364;-1.488;2023-05-20T16:22:35;101332.19;;;35.75;12.74
29879;BME280;16752;53.364;-1.488;2023-05-20T16:25:18;101399.13;;;36.39;13.68
29879;BME280;16752;53.364;-1.488;2023-05-20T16:28:02;101400.06;;;34.78;15.54
29879;BME280;16752;53.364;-1.488;2023-05-20T16:30:46;101343.41;;;33.06;16.79
29879;BME280;16752;53.364;-1.488;2023-05-20T16:33:30;101394.59;;;32.85;17.71
29879;BME280;16752;53.364;-1.488;2023-05-20T16:36:14;101406.75;;;31.61;18.14
29879;BME280;16752;53.364;-1.488;2023-05-20T16:39:06;101266.19;;;28.87;20.53
29879;BME280;16752;53.364;-1.488;2023-05-20T16:41:51;101347.81;;;29.37;20.73
29879;BME280;16752;53.364;-1.488;2023-05-20T16:44:36;101400.97;;;29.36;21.41
29879;BME280;16752;53.364;-1.488;2023-05-20T16:47:21;101325.25;;;28.82;22.23
29879;BME280;16752;53.364;-1.488;2023-05-20T16:50:06;101401.91;;;29.50;21.88
29879;BME280;16752;53.364;-1.488;2023-05-20T16:52:50;101363.69;;;29.18;21.52
29879;BME280;16752;53.364;-1.488;2023-05-20T16:55:53;101257.69;;;28.13;21.49
29879;BME280;16752;53.364;-1.488;2023-05-20T16:58:37;101373.97;;;28.52;21.86
29879;BME280;16752;53.364;-1.488;2023-05-20T17:01:21;101394.69;;;27.94;23.36
29879;BME280;16752;53.364;-1.488;2023-05-20T17:04:05;101307.47;;;27.45;23.50
29879;BME280;16752;53.364;-1.488;2023-05-20T17:06:49;101322.50;;;27.54;22.73
29879;BME280;16752;53.364;-1.488;2023-05-20T17:09:34;101271.44;;;27.09;23.13
29879;BME280;16752;53.364;-1.488;2023-05-20T17:12:19;101361.38;;;27.51;23.44
29879;BME280;16752;53.364;-1.488;2023-05-20T17:15:04;101369.22;;;27.17;24.28
29879;BME280;16752;53.364;-1.488;2023-05-20T17:17:49;101328.16;;;26.85;24.04
29879;BME280;16752;53.364;-1.488;2023-05-20T17:20:33;101262.56;;;26.19;24.15
29879;BME280;16752;53.364;-1.488;2023-05-20T17:23:24;101339.81;;;26.77;23.90
29879;BME280;16752;53.364;-1.488;2023-05-20T17:26:08;101279.13;;;26.23;24.35
29879;BME280;16752;53.364;-1.488;2023-05-20T17:28:52;101394.47;;;26.93;24.11
29879;BME280;16752;53.364;-1.488;2023-05-20T17:31:36;101261.19;;;25.77;24.81
29879;BME280;16752;53.364;-1.488;2023-05-20T17:34:20;101385.28;;;26.18;24.28
29879;BME280;16752;53.364;-1.488;2023-05-20T17:37:04;101380.16;;;26.32;23.95
29879;BME280;16752;53.364;-1.488;2023-05-20T17:39:48;101344.78;;;25.97;23.13
29879;BME280;16752;53.364;-1.488;2023-05-20T17:42:32;101311.34;;;25.77;23.56
29879;BME280;16752;53.364;-1.488;2023-05-20T17:45:16;101331.81;;;25.78;23.51
29879;BME280;16752;53.364;-1.488;2023-05-20T17:48:00;101267.47;;;25.31;23.60
29879;BME280;16752;53.364;-1.488;2023-05-20T17:50:49;101394.44;;;25.62;23.53
29879;BME280;16752;53.364;-1.488;2023-05-20T17:53:33;101291.16;;;25.19;23.82
29879;BME280;16752;53.364;-1.488;2023-05-20T17:56:17;101299.53;;;25.24;23.71
29879;BME280;16752;53.364;-1.488;2023-05-20T17:59:01;101387.00;;;25.33;24.07
29879;BME280;16752;53.364;-1.488;2023-05-20T18:01:51;101296.72;;;25.09;24.07
29879;BME280;16752;53.364;-1.488;2023-05-20T18:07:40;101395.91;;;25.25;24.52
29879;BME280;16752;53.364;-1.488;2023-05-20T18:10:24;101361.88;;;25.26;24.29
29879;BME280;16752;53.364;-1.488;2023-05-20T18:13:08;101320.38;;;24.97;24.41
29879;BME280;16752;53.364;-1.488;2023-05-20T18:15:52;101319.38;;;24.82;25.02
29879;BME280;16752;53.364;-1.488;2023-05-20T18:18:36;101355.91;;;25.00;25.15
29879;BME280;16752;53.364;-1.488;2023-05-20T18:21:21;101390.72;;;25.24;25.32
29879;BME280;16752;53.364;-1.488;2023-05-20T18:24:08;101390.38;;;25.27;25.18
29879;BME280;16752;53.364;-1.488;2023-05-20T18:26:54;101344.81;;;24.86;24.86
29879;BME280;16752;53.364;-1.488;2023-05-20T18:29:39;101363.06;;;24.91;24.99
29879;BME280;16752;53.364;-1.488;2023-05-20T18:32:23;101365.28;;;24.79;25.90
29879;BME280;16752;53.364;-1.488;2023-05-20T18:35:11;101357.94;;;24.57;26.34
29879;BME280;16752;53.364;-1.488;2023-05-20T18:37:54;101301.34;;;24.35;26.27
29879;BME280;16752;53.364;-1.488;2023-05-20T18:40:38;101236.38;;;23.93;26.51
29879;BME280;16752;53.364;-1.488;2023-05-20T18:43:22;101394.78;;;24.79;26.83
29879;BME280;16752;53.364;-1.488;2023-05-20T18:46:06;101343.19;;;24.45;26.18
29879;BME280;16752;53.364;-1.488;2023-05-20T18:48:50;101344.84;;;24.46;26.69
29879;BME280;16752;53.364;-1.488;2023-05-20T18:51:35;101356.25;;;24.48;26.88
29879;BME280;16752;53.364;-1.488;2023-05-20T18:54:25;101291.88;;;23.83;27.54
29879;BME280;16752;53.364;-1.488;2023-05-20T18:57:09;101331.09;;;24.08;26.90